createdAt,value
2023-06-16T00:01:16.337Z,18.73
2023-06-16T00:03:44.998Z,18.68
2023-06-16T00:06:15.466Z,18.56
2023-06-16T00:08:46.115Z,18.52
2023-06-16T00:11:14.919Z,18.58
2023-06-16T00:13:43.328Z,18.60
2023-06-16T00:16:14.208Z,18.56
2023-06-16T00:18:45.248Z,18.37
2023-06-16T00:21:15.577Z,18.36
2023-06-16T00:23:43.055Z,18.43
2023-06-16T00:26:10.309Z,18.54
2023-06-16T00:28:37.549Z,18.49
2023-06-16T00:31:04.795Z,18.45
2023-06-16T00:33:31.972Z,18.49
2023-06-16T00:36:00.312Z,18.49
2023-06-16T00:38:28.814Z,18.45
2023-06-16T00:40:56.277Z,18.36
2023-06-16T00:43:23.504Z,18.36
2023-06-16T00:45:51.491Z,18.34
2023-06-16T00:48:18.999Z,18.34
2023-06-16T00:50:46.702Z,18.32
2023-06-16T00:53:14.356Z,18.34
2023-06-16T00:55:42.167Z,18.33
2023-06-16T00:58:09.381Z,18.31
2023-06-16T01:00:39.469Z,18.27
2023-06-16T01:03:10.387Z,18.23
2023-06-16T01:05:37.997Z,18.22
2023-06-16T01:08:12.672Z,18.25
2023-06-16T01:10:55.348Z,18.26
2023-06-16T01:13:43.418Z,18.22
2023-06-16T01:16:12.302Z,18.13
2023-06-16T01:18:45.340Z,18.13
2023-06-16T01:21:43.237Z,18.17
2023-06-16T01:24:15.190Z,18.11
2023-06-16T01:26:48.713Z,18.14
2023-06-16T01:29:16.256Z,18.06
2023-06-16T01:31:45.182Z,18.12
2023-06-16T01:34:13.598Z,18.12
2023-06-16T01:36:42.980Z,18.10
2023-06-16T01:39:16.178Z,18.07
2023-06-16T01:41:44.305Z,18.01
2023-06-16T01:44:12.042Z,18.03
2023-06-16T01:46:39.563Z,18.01
2023-06-16T01:49:07.366Z,17.99
2023-06-16T01:51:34.803Z,17.99
2023-06-16T01:54:02.049Z,17.98
2023-06-16T01:56:30.699Z,17.91
2023-06-16T01:58:58.334Z,17.88
2023-06-16T02:01:31.065Z,17.88
2023-06-16T02:04:07.833Z,17.84
2023-06-16T02:06:57.280Z,17.84
2023-06-16T02:09:27.143Z,17.80
2023-06-16T02:11:56.058Z,17.85
2023-06-16T02:14:23.600Z,17.83
2023-06-16T02:16:52.067Z,17.86
2023-06-16T02:19:19.325Z,17.86
2023-06-16T02:21:46.925Z,17.88
2023-06-16T02:24:14.134Z,17.86
2023-06-16T02:26:41.411Z,17.83
2023-06-16T02:29:08.601Z,17.77
2023-06-16T02:31:35.915Z,17.80
2023-06-16T02:34:03.117Z,17.83
2023-06-16T02:36:30.571Z,17.76
2023-06-16T02:38:57.994Z,17.74
2023-06-16T02:41:25.209Z,17.74
2023-06-16T02:43:52.489Z,17.68
2023-06-16T02:46:19.717Z,17.71
2023-06-16T02:48:47.087Z,17.69
2023-06-16T02:51:14.410Z,17.61
2023-06-16T02:53:42.765Z,17.59
2023-06-16T02:56:09.980Z,17.56
2023-06-16T02:58:37.249Z,17.56
2023-06-16T03:01:05.739Z,17.51
2023-06-16T03:03:33.989Z,17.56
2023-06-16T03:06:01.732Z,17.58
2023-06-16T03:08:29.513Z,17.54
2023-06-16T03:10:56.732Z,17.50
2023-06-16T03:13:23.943Z,17.53
2023-06-16T03:15:52.053Z,17.66
2023-06-16T03:18:19.466Z,17.58
2023-06-16T03:20:48.582Z,17.60
2023-06-16T03:23:16.240Z,17.63
2023-06-16T03:25:43.386Z,17.51
2023-06-16T03:28:10.608Z,17.51
2023-06-16T03:30:37.786Z,17.50
2023-06-16T03:33:05.141Z,17.51
2023-06-16T03:35:32.359Z,17.54
2023-06-16T03:37:59.538Z,17.63
2023-06-16T03:40:26.714Z,17.64
2023-06-16T03:42:54.015Z,17.59
2023-06-16T03:45:21.362Z,17.58
2023-06-16T03:47:48.578Z,17.62
2023-06-16T03:50:15.950Z,17.69
2023-06-16T03:52:43.268Z,17.66
2023-06-16T03:55:10.520Z,17.73
2023-06-16T03:57:40.471Z,17.76
2023-06-16T04:00:11.575Z,17.84
2023-06-16T04:02:38.843Z,17.89
2023-06-16T04:05:07.398Z,17.85
2023-06-16T04:07:35.617Z,17.82
2023-06-16T04:10:03.672Z,17.78
2023-06-16T04:12:30.860Z,17.81
2023-06-16T04:14:59.078Z,17.84
2023-06-16T04:17:26.325Z,17.85
2023-06-16T04:19:53.589Z,17.85
2023-06-16T04:22:20.872Z,17.82
2023-06-16T04:24:48.148Z,17.82
2023-06-16T04:27:16.461Z,17.87
2023-06-16T04:29:43.822Z,17.92
2023-06-16T04:32:12.584Z,17.93
2023-06-16T04:34:40.196Z,17.94
2023-06-16T04:37:10.945Z,17.92
2023-06-16T04:39:38.958Z,17.98
2023-06-16T04:42:09.194Z,17.99
2023-06-16T04:44:37.032Z,17.97
2023-06-16T04:47:04.491Z,18.05
2023-06-16T04:49:32.151Z,18.14
2023-06-16T04:51:59.472Z,18.13
2023-06-16T04:54:27.134Z,18.12
2023-06-16T04:56:54.328Z,18.19
2023-06-16T04:59:23.669Z,18.16
2023-06-16T05:01:51.388Z,18.11
2023-06-16T05:04:18.883Z,18.16
2023-06-16T05:06:46.088Z,18.16
2023-06-16T05:09:13.447Z,18.13
2023-06-16T05:11:40.993Z,18.18
2023-06-16T05:14:08.297Z,18.18
2023-06-16T05:16:36.011Z,18.19
2023-06-16T05:19:04.154Z,18.20
2023-06-16T05:21:31.551Z,18.23
2023-06-16T05:24:01.517Z,18.33
2023-06-16T05:26:29.021Z,18.37
2023-06-16T05:28:56.163Z,18.39
2023-06-16T05:31:23.406Z,18.43
2023-06-16T05:33:50.767Z,18.48
2023-06-16T05:36:18.038Z,18.47
2023-06-16T05:38:45.511Z,18.49
2023-06-16T05:41:12.657Z,18.52
2023-06-16T05:43:39.860Z,18.49
2023-06-16T05:46:06.973Z,18.51
2023-06-16T05:48:34.095Z,18.53
2023-06-16T05:51:01.275Z,18.48
2023-06-16T05:53:28.733Z,18.47
2023-06-16T05:55:58.843Z,18.39
2023-06-16T05:58:26.367Z,18.40
2023-06-16T06:00:53.542Z,18.39
2023-06-16T06:03:21.555Z,18.31
2023-06-16T06:05:49.074Z,18.35
2023-06-16T06:08:16.312Z,18.35
2023-06-16T06:10:43.494Z,18.37
2023-06-16T06:13:10.935Z,18.35
2023-06-16T06:15:38.173Z,18.35
2023-06-16T06:18:08.172Z,18.36
2023-06-16T06:20:35.419Z,18.37
2023-06-16T06:23:02.612Z,18.41
2023-06-16T06:25:29.929Z,18.43
2023-06-16T06:27:57.237Z,18.43
2023-06-16T06:30:26.124Z,18.52
2023-06-16T06:32:53.340Z,18.56
2023-06-16T06:35:20.565Z,18.59
2023-06-16T06:37:47.762Z,18.63
2023-06-16T06:40:15.014Z,18.69
2023-06-16T06:42:42.198Z,18.69
2023-06-16T06:45:11.732Z,18.73
2023-06-16T06:47:39.196Z,18.74
2023-06-16T06:50:07.273Z,18.80
2023-06-16T06:52:34.536Z,18.84
2023-06-16T06:55:01.909Z,18.91
2023-06-16T06:57:29.369Z,18.97
2023-06-16T06:59:56.539Z,19.05
2023-06-16T07:02:25.166Z,19.08
2023-06-16T07:04:52.484Z,19.11
2023-06-16T07:07:19.783Z,19.18
2023-06-16T07:09:46.935Z,19.24
2023-06-16T07:12:14.110Z,19.22
2023-06-16T07:14:41.424Z,19.26
2023-06-16T07:17:08.588Z,19.33
2023-06-16T07:19:35.908Z,19.38
2023-06-16T07:22:03.184Z,19.37
2023-06-16T07:24:30.492Z,19.44
2023-06-16T07:26:57.793Z,19.52
2023-06-16T07:29:24.963Z,19.59
2023-06-16T07:31:52.218Z,19.65
2023-06-16T07:34:19.920Z,19.76
2023-06-16T07:36:47.340Z,19.74
2023-06-16T07:39:19.000Z,19.70
2023-06-16T07:41:46.196Z,19.79
2023-06-16T07:44:13.441Z,19.86
2023-06-16T07:46:41.468Z,19.93
2023-06-16T07:49:08.694Z,19.92
2023-06-16T07:51:36.505Z,19.95
2023-06-16T07:54:04.627Z,20.10
2023-06-16T07:56:31.801Z,20.12
2023-06-16T07:58:59.106Z,20.10
2023-06-16T08:01:26.304Z,20.15
2023-06-16T08:03:54.013Z,20.22
2023-06-16T08:06:21.416Z,20.27
2023-06-16T08:08:48.939Z,20.35
2023-06-16T08:11:16.304Z,20.44
2023-06-16T08:13:43.549Z,20.55
2023-06-16T08:16:10.848Z,20.61
2023-06-16T08:18:39.116Z,20.68
2023-06-16T08:21:09.347Z,20.76
2023-06-16T08:23:36.798Z,20.87
2023-06-16T08:26:06.288Z,20.93
2023-06-16T08:28:33.471Z,20.91
2023-06-16T08:31:00.805Z,21.01
2023-06-16T08:33:28.080Z,21.09
2023-06-16T08:35:55.391Z,21.14
2023-06-16T08:38:22.710Z,21.16
2023-06-16T08:40:50.274Z,21.12
2023-06-16T08:43:17.979Z,21.13
2023-06-16T08:45:46.645Z,21.11
2023-06-16T08:48:14.720Z,21.15
2023-06-16T08:50:42.215Z,21.18
2023-06-16T08:53:12.610Z,21.28
2023-06-16T08:55:42.165Z,21.33
2023-06-16T08:58:12.968Z,21.30
2023-06-16T09:00:42.066Z,21.24
2023-06-16T09:03:09.852Z,21.15
2023-06-16T09:05:37.859Z,21.13
2023-06-16T09:08:06.831Z,21.15
2023-06-16T09:10:36.844Z,21.26
2023-06-16T09:13:04.239Z,21.41
2023-06-16T09:15:35.299Z,21.58
2023-06-16T09:18:07.778Z,21.61
2023-06-16T09:20:39.399Z,21.68
2023-06-16T09:23:06.592Z,21.73
2023-06-16T09:25:35.557Z,21.88
2023-06-16T09:28:10.915Z,21.97
2023-06-16T09:30:42.401Z,22.02
2023-06-16T09:33:11.506Z,22.12
2023-06-16T09:35:41.816Z,22.18
2023-06-16T09:38:11.465Z,22.26
2023-06-16T09:40:40.161Z,22.26
2023-06-16T09:43:27.257Z,22.23
2023-06-16T09:46:15.680Z,22.17
2023-06-16T09:49:05.806Z,22.04
2023-06-16T09:51:54.276Z,21.95
2023-06-16T09:54:41.386Z,21.85
2023-06-16T09:57:29.079Z,21.83
2023-06-16T10:00:20.007Z,21.79
2023-06-16T10:03:11.100Z,21.64
2023-06-16T10:06:04.687Z,21.73
2023-06-16T10:08:53.201Z,21.93
2023-06-16T10:11:40.912Z,22.01
2023-06-16T10:14:32.674Z,22.05
2023-06-16T10:17:21.515Z,22.12
2023-06-16T10:20:15.041Z,22.12
2023-06-16T10:23:02.539Z,22.12
2023-06-16T10:25:50.649Z,22.16
2023-06-16T10:28:37.998Z,22.18
2023-06-16T10:31:29.131Z,22.20
2023-06-16T10:34:21.087Z,22.14
2023-06-16T10:36:50.388Z,22.12
2023-06-16T10:39:18.034Z,22.17
2023-06-16T10:41:57.018Z,22.28
2023-06-16T10:44:28.224Z,22.29
2023-06-16T10:47:11.072Z,22.29
2023-06-16T10:50:17.813Z,22.33
2023-06-16T10:52:45.118Z,22.26
2023-06-16T10:55:39.348Z,22.36
2023-06-16T10:58:20.284Z,22.42
2023-06-16T11:00:59.971Z,22.47
2023-06-16T11:03:43.896Z,22.38
2023-06-16T11:06:12.102Z,22.32
2023-06-16T11:09:00.210Z,22.35
2023-06-16T11:11:34.570Z,22.33
2023-06-16T11:14:02.638Z,22.37
2023-06-16T11:16:30.126Z,22.37
2023-06-16T11:18:59.180Z,22.47
2023-06-16T11:21:31.748Z,22.50
2023-06-16T11:24:09.852Z,22.56
2023-06-16T11:26:37.521Z,22.59
2023-06-16T11:29:08.619Z,22.55
2023-06-16T11:31:37.326Z,22.63
2023-06-16T11:34:13.027Z,22.71
2023-06-16T11:36:49.403Z,22.77
2023-06-16T11:39:18.583Z,22.91
2023-06-16T11:41:57.581Z,22.91
2023-06-16T11:44:29.014Z,22.88
2023-06-16T11:46:56.965Z,23.06
2023-06-16T11:49:25.240Z,23.18
2023-06-16T11:51:53.156Z,23.14
2023-06-16T11:54:22.225Z,23.18
2023-06-16T11:56:52.258Z,23.25
2023-06-16T11:59:20.244Z,23.30
2023-06-16T12:01:48.206Z,23.41
2023-06-16T12:04:15.785Z,23.33
2023-06-16T12:06:43.215Z,23.36
2023-06-16T12:09:10.675Z,23.37
2023-06-16T12:11:37.959Z,23.44
2023-06-16T12:14:05.168Z,23.40
2023-06-16T12:16:32.546Z,23.37
2023-06-16T12:19:00.362Z,23.33
2023-06-16T12:21:31.876Z,23.41
2023-06-16T12:24:01.372Z,23.47
2023-06-16T12:26:41.693Z,23.59
2023-06-16T12:29:16.745Z,23.65
2023-06-16T12:31:55.943Z,23.60
2023-06-16T12:34:37.345Z,23.62
2023-06-16T12:37:08.197Z,23.70
2023-06-16T12:39:35.953Z,23.73
2023-06-16T12:42:06.094Z,23.71
2023-06-16T12:44:45.271Z,23.82
2023-06-16T12:47:13.860Z,23.65
2023-06-16T12:49:41.249Z,23.77
2023-06-16T12:52:11.333Z,23.90
2023-06-16T12:54:38.827Z,24.04
2023-06-16T12:57:06.404Z,24.38
2023-06-16T12:59:34.240Z,24.51
2023-06-16T13:02:01.661Z,24.72
2023-06-16T13:04:29.598Z,24.79
2023-06-16T13:06:57.331Z,24.91
2023-06-16T13:09:24.619Z,24.98
2023-06-16T13:11:54.591Z,25.07
2023-06-16T13:14:23.325Z,24.87
2023-06-16T13:16:51.317Z,24.84
2023-06-16T13:19:18.748Z,24.63
2023-06-16T13:21:46.077Z,24.61
2023-06-16T13:24:13.633Z,24.62
2023-06-16T13:26:41.562Z,24.51
2023-06-16T13:29:09.616Z,24.55
2023-06-16T13:31:36.817Z,24.52
2023-06-16T13:34:04.271Z,24.50
2023-06-16T13:36:31.516Z,24.44
2023-06-16T13:38:58.698Z,24.30
2023-06-16T13:41:28.582Z,24.24
2023-06-16T13:43:56.095Z,24.24
2023-06-16T13:46:23.449Z,24.31
2023-06-16T13:48:50.851Z,24.42
2023-06-16T13:51:18.126Z,24.56
2023-06-16T13:53:45.424Z,24.69
2023-06-16T13:56:12.848Z,24.70
2023-06-16T13:58:40.108Z,24.66
2023-06-16T14:01:07.510Z,24.73
2023-06-16T14:03:34.953Z,24.66
2023-06-16T14:06:02.877Z,24.61
2023-06-16T14:08:30.627Z,24.72
2023-06-16T14:10:58.296Z,24.90
2023-06-16T14:13:26.077Z,24.93
2023-06-16T14:15:53.389Z,24.76
2023-06-16T14:18:20.723Z,24.62
2023-06-16T14:20:48.014Z,24.66
2023-06-16T14:23:18.101Z,24.58
2023-06-16T14:25:46.848Z,24.47
2023-06-16T14:28:15.788Z,24.46
2023-06-16T14:30:43.420Z,24.39
2023-06-16T14:33:12.055Z,24.36
2023-06-16T14:35:40.166Z,24.19
2023-06-16T14:38:07.525Z,24.02
2023-06-16T14:40:37.816Z,23.88
2023-06-16T16:25:34.554Z,23.46
2023-06-16T16:28:02.099Z,23.49
2023-06-16T16:30:29.634Z,23.47
2023-06-16T16:32:57.021Z,23.37
2023-06-16T16:35:24.572Z,23.33
2023-06-16T16:37:51.894Z,23.35
2023-06-16T16:40:19.424Z,23.28
2023-06-16T16:42:47.895Z,23.29
2023-06-16T16:45:16.187Z,23.21
2023-06-16T16:47:43.717Z,23.21
2023-06-16T16:50:11.535Z,23.28
2023-06-16T16:52:39.349Z,23.26
2023-06-16T16:55:06.855Z,23.17
2023-06-16T16:57:34.314Z,23.07
2023-06-16T17:00:01.554Z,23.01
2023-06-16T17:02:29.324Z,23.03
2023-06-16T17:04:56.821Z,23.04
2023-06-16T17:07:24.421Z,23.03
2023-06-16T17:09:51.601Z,23.13
2023-06-16T17:12:18.869Z,23.16
2023-06-16T17:14:46.123Z,23.26
2023-06-16T17:17:13.616Z,23.34
2023-06-16T17:19:40.984Z,23.35
2023-06-16T17:22:08.159Z,23.22
2023-06-16T17:24:35.585Z,23.19
2023-06-16T17:27:02.865Z,23.20
2023-06-16T17:29:30.121Z,23.21
2023-06-16T17:31:57.439Z,23.19
2023-06-16T17:34:27.220Z,23.23
2023-06-16T17:36:58.797Z,23.33
2023-06-16T17:39:26.414Z,23.28
2023-06-16T17:41:55.537Z,23.21
2023-06-16T17:44:24.046Z,23.16
2023-06-16T17:46:51.763Z,23.17
2023-06-16T17:49:20.998Z,23.13
2023-06-16T17:51:48.335Z,23.09
2023-06-16T17:54:15.910Z,23.07
2023-06-16T17:56:43.258Z,23.02
2023-06-16T17:59:10.649Z,23.06
2023-06-16T18:01:39.594Z,23.05
2023-06-16T18:04:06.779Z,23.07
2023-06-16T18:06:33.967Z,23.03
2023-06-16T18:09:01.410Z,23.01
2023-06-16T18:11:29.038Z,22.99
2023-06-16T18:13:56.319Z,22.98
2023-06-16T18:16:24.539Z,22.91
2023-06-16T18:18:51.980Z,22.94
2023-06-16T18:21:19.390Z,22.94
2023-06-16T18:23:46.595Z,22.87
2023-06-16T18:26:13.929Z,22.85
2023-06-16T18:28:41.171Z,22.81
2023-06-16T18:31:08.397Z,22.77
2023-06-16T18:33:36.624Z,22.74
2023-06-16T18:36:03.955Z,22.68
2023-06-16T18:38:31.149Z,22.58
2023-06-16T18:40:58.360Z,22.53
2023-06-16T18:43:28.207Z,22.48
2023-06-16T18:45:56.069Z,22.46
2023-06-16T18:48:26.681Z,22.46
2023-06-16T18:50:54.515Z,22.38
2023-06-16T18:53:23.534Z,22.31
2023-06-16T18:55:52.025Z,22.29
2023-06-16T18:58:19.187Z,22.25
2023-06-16T19:00:46.473Z,22.21
2023-06-16T19:03:13.876Z,22.14
2023-06-16T19:05:42.868Z,22.05
2023-06-16T19:08:15.647Z,22.02
2023-06-16T19:10:42.965Z,21.89
2023-06-16T19:13:10.775Z,21.89
2023-06-16T19:15:38.600Z,21.91
2023-06-16T19:18:06.090Z,21.89
2023-06-16T19:20:33.324Z,21.86
2023-06-16T19:23:01.101Z,21.82
2023-06-16T19:25:28.770Z,21.81
2023-06-16T19:27:56.043Z,21.78
2023-06-16T19:30:23.510Z,21.77
2023-06-16T19:32:51.035Z,21.70
2023-06-16T19:35:20.553Z,21.58
2023-06-16T19:37:47.719Z,21.53
2023-06-16T19:40:15.430Z,21.46
2023-06-16T19:42:42.918Z,21.40
2023-06-16T19:45:10.857Z,21.41
2023-06-16T19:47:39.137Z,21.34
2023-06-16T19:50:07.034Z,21.33
2023-06-16T19:52:34.613Z,21.30
2023-06-16T19:55:02.023Z,21.20
2023-06-16T19:57:29.479Z,21.18
2023-06-16T19:59:56.761Z,21.15
2023-06-16T20:02:24.093Z,21.04
2023-06-16T20:04:53.076Z,20.97
2023-06-16T20:07:22.096Z,20.95
2023-06-16T20:09:49.427Z,20.89
2023-06-16T20:12:16.634Z,20.92
2023-06-16T20:14:43.947Z,20.90
2023-06-16T20:17:11.148Z,20.86
2023-06-16T20:19:40.234Z,20.84
2023-06-16T20:22:07.663Z,20.79
2023-06-16T20:24:35.047Z,20.81
2023-06-16T20:27:02.306Z,20.78
2023-06-16T20:29:29.889Z,20.69
2023-06-16T20:31:57.232Z,20.61
2023-06-16T20:34:24.413Z,20.56
2023-06-16T20:36:51.633Z,20.51
2023-06-16T20:39:19.311Z,20.48
2023-06-16T20:41:46.543Z,20.34
2023-06-16T20:44:16.048Z,20.30
2023-06-16T20:46:43.965Z,20.26
2023-06-16T20:49:11.369Z,20.21
2023-06-16T20:51:38.657Z,20.19
2023-06-16T20:54:08.561Z,20.05
2023-06-16T20:56:36.041Z,20.01
2023-06-16T20:59:03.865Z,20.01
2023-06-16T21:01:41.063Z,20.00
2023-06-16T21:04:13.059Z,19.94
2023-06-16T21:06:41.763Z,19.90
2023-06-16T21:09:11.782Z,19.89
2023-06-16T21:11:39.229Z,19.91
2023-06-16T21:14:07.482Z,19.88
2023-06-16T21:16:34.942Z,19.86
2023-06-16T21:19:02.741Z,19.83
2023-06-16T21:21:30.046Z,19.77
2023-06-16T21:23:58.464Z,19.71
2023-06-16T21:26:26.237Z,19.63
2023-06-16T21:28:53.677Z,19.63
2023-06-16T21:31:21.280Z,19.61
2023-06-16T21:33:48.530Z,19.57
2023-06-16T21:36:15.931Z,19.56
2023-06-16T21:38:45.088Z,19.47
2023-06-16T21:41:12.362Z,19.44
2023-06-16T21:43:39.683Z,19.34
2023-06-16T21:46:07.152Z,19.23
2023-06-16T21:48:34.389Z,19.21
2023-06-16T21:51:01.596Z,19.33
2023-06-16T21:53:29.090Z,19.35
2023-06-16T21:55:56.300Z,19.34
2023-06-16T21:58:23.567Z,19.35
2023-06-16T22:00:50.985Z,19.34
2023-06-16T22:03:18.986Z,19.33
2023-06-16T22:05:46.341Z,19.30
2023-06-16T22:08:13.499Z,19.30
2023-06-16T22:10:42.275Z,19.35
2023-06-16T22:13:10.085Z,19.28
2023-06-16T22:15:37.344Z,19.21
2023-06-16T22:18:04.842Z,19.21
2023-06-16T22:20:32.526Z,19.16
2023-06-16T22:22:59.677Z,19.12
2023-06-16T22:25:26.894Z,19.07
2023-06-16T22:27:54.252Z,19.01
2023-06-16T22:30:22.235Z,18.99
2023-06-16T22:32:50.908Z,18.73
2023-06-16T22:35:18.227Z,18.68
2023-06-16T22:37:45.371Z,18.88
2023-06-16T22:40:13.019Z,19.01
2023-06-16T22:42:40.148Z,18.96
2023-06-16T22:45:08.079Z,18.87
2023-06-16T22:47:36.274Z,18.84
2023-06-16T22:50:03.986Z,18.93
2023-06-16T22:52:31.188Z,18.97
2023-06-16T22:54:58.339Z,18.95
2023-06-16T22:57:25.479Z,18.98
2023-06-16T22:59:52.695Z,18.95
2023-06-16T23:02:19.839Z,18.99
2023-06-16T23:04:47.508Z,18.99
2023-06-16T23:07:14.710Z,18.90
2023-06-16T23:09:42.027Z,18.88
2023-06-16T23:12:09.371Z,18.83
2023-06-16T23:14:36.528Z,18.76
2023-06-16T23:17:03.827Z,18.76
2023-06-16T23:19:31.596Z,18.82
2023-06-16T23:21:59.643Z,18.80
2023-06-16T23:24:26.855Z,18.79
2023-06-16T23:26:55.766Z,18.76
2023-06-16T23:29:23.385Z,18.69
2023-06-16T23:31:50.579Z,18.68
2023-06-16T23:34:18.231Z,18.69
2023-06-16T23:36:46.396Z,18.71
2023-06-16T23:39:13.577Z,18.67
2023-06-16T23:41:40.850Z,18.62
2023-06-16T23:44:08.790Z,18.61
2023-06-16T23:46:36.075Z,18.55
2023-06-16T23:49:03.252Z,18.50
2023-06-16T23:51:30.403Z,18.50
2023-06-16T23:53:57.542Z,18.46
2023-06-16T23:56:24.741Z,18.52
2023-06-16T23:58:52.066Z,18.57
